createdAt,value
2023-04-30T00:01:34.071Z,77.80
2023-04-30T00:04:07.014Z,77.79
2023-04-30T00:06:39.347Z,77.73
2023-04-30T00:09:12.196Z,78.55
2023-04-30T00:11:44.434Z,78.57
2023-04-30T00:14:19.772Z,78.83
2023-04-30T00:16:52.235Z,79.25
2023-04-30T00:19:24.502Z,78.95
2023-04-30T00:21:56.921Z,78.92
2023-04-30T00:24:29.642Z,78.63
2023-04-30T00:27:01.773Z,77.90
2023-04-30T00:29:33.979Z,77.56
2023-04-30T00:32:06.646Z,78.02
2023-04-30T00:34:38.924Z,77.83
2023-04-30T00:37:11.312Z,77.35
2023-04-30T00:39:43.520Z,77.82
2023-04-30T00:42:15.686Z,78.01
2023-04-30T00:44:47.916Z,78.04
2023-04-30T00:47:20.205Z,77.78
2023-04-30T00:49:52.696Z,77.65
2023-04-30T00:52:25.184Z,78.24
2023-04-30T00:54:57.816Z,78.34
2023-04-30T00:57:30.297Z,78.46
2023-04-30T01:00:03.320Z,78.61
2023-04-30T01:02:37.171Z,79.18
2023-04-30T01:05:09.887Z,78.95
2023-04-30T01:07:45.515Z,78.98
2023-04-30T01:10:18.261Z,78.62
2023-04-30T01:12:52.805Z,77.66
2023-04-30T01:15:43.827Z,78.13
2023-04-30T01:18:29.280Z,77.92
2023-04-30T01:21:09.816Z,78.66
2023-04-30T01:24:33.461Z,78.52
2023-04-30T01:27:59.920Z,77.95
2023-04-30T01:30:33.226Z,77.75
2023-04-30T01:33:05.656Z,77.97
2023-04-30T01:35:43.977Z,78.54
2023-04-30T01:38:43.741Z,79.20
2023-04-30T01:41:31.024Z,79.65
2023-04-30T01:44:21.087Z,79.94
2023-04-30T01:47:36.022Z,80.12
2023-04-30T01:50:31.193Z,80.65
2023-04-30T01:53:11.005Z,80.15
2023-04-30T01:56:06.369Z,79.81
2023-04-30T01:58:40.437Z,79.56
2023-04-30T02:01:32.072Z,79.58
2023-04-30T02:04:05.161Z,79.52
2023-04-30T02:06:37.649Z,80.17
2023-04-30T02:09:10.848Z,80.15
2023-04-30T02:11:43.119Z,80.39
2023-04-30T02:14:15.265Z,80.19
2023-04-30T02:16:47.544Z,80.26
2023-04-30T02:19:19.761Z,80.85
2023-04-30T02:21:52.141Z,81.32
2023-04-30T02:24:24.365Z,81.59
2023-04-30T02:26:56.559Z,81.21
2023-04-30T02:29:28.743Z,81.80
2023-04-30T02:32:01.470Z,81.74
2023-04-30T02:34:33.887Z,81.81
2023-04-30T02:37:06.195Z,82.44
2023-04-30T02:39:38.394Z,82.32
2023-04-30T02:42:10.817Z,84.07
2023-04-30T02:44:43.882Z,83.59
2023-04-30T02:47:16.079Z,83.99
2023-04-30T02:49:48.292Z,84.12
2023-04-30T02:52:20.648Z,84.00
2023-04-30T02:54:52.954Z,83.94
2023-04-30T02:57:25.220Z,84.80
2023-04-30T02:59:57.726Z,85.07
2023-04-30T03:02:30.037Z,85.42
2023-04-30T03:05:02.900Z,86.11
2023-04-30T03:07:35.084Z,86.18
2023-04-30T03:10:08.456Z,86.50
2023-04-30T03:12:41.218Z,87.23
2023-04-30T03:15:13.577Z,86.98
2023-04-30T03:17:46.444Z,87.13
2023-04-30T03:20:18.772Z,87.76
2023-04-30T03:22:51.065Z,87.73
2023-04-30T03:25:23.387Z,87.83
2023-04-30T03:27:55.623Z,87.60
2023-04-30T03:30:28.542Z,87.64
2023-04-30T03:33:03.612Z,88.49
2023-04-30T03:35:38.599Z,88.43
2023-04-30T03:38:10.892Z,88.24
2023-04-30T03:40:43.156Z,88.57
2023-04-30T03:43:15.622Z,88.43
2023-04-30T03:45:47.931Z,87.97
2023-04-30T03:48:20.180Z,88.42
2023-04-30T03:50:52.325Z,88.58
2023-04-30T03:53:26.099Z,88.86
2023-04-30T03:55:58.982Z,88.89
2023-04-30T03:58:31.485Z,88.98
2023-04-30T04:01:04.811Z,89.81
2023-04-30T04:03:37.103Z,89.42
2023-04-30T04:06:09.486Z,89.10
2023-04-30T04:08:43.533Z,89.36
2023-04-30T04:11:18.584Z,89.98
2023-04-30T04:13:50.771Z,90.36
2023-04-30T04:16:23.021Z,90.72
2023-04-30T04:18:55.484Z,90.77
2023-04-30T04:21:27.623Z,90.12
2023-04-30T04:24:00.012Z,90.17
2023-04-30T04:26:32.188Z,90.42
2023-04-30T04:29:05.169Z,90.99
2023-04-30T04:31:38.801Z,90.58
2023-04-30T04:34:11.058Z,90.73
2023-04-30T04:36:43.377Z,90.76
2023-04-30T04:39:15.735Z,91.32
2023-04-30T04:41:47.852Z,90.71
2023-04-30T04:44:20.555Z,90.44
2023-04-30T04:46:54.246Z,91.07
2023-04-30T04:49:26.437Z,90.92
2023-04-30T04:51:58.954Z,90.94
2023-04-30T04:54:31.398Z,90.72
2023-04-30T04:57:03.747Z,90.86
2023-04-30T04:59:36.176Z,90.35
2023-04-30T05:02:08.444Z,89.60
2023-04-30T05:04:41.748Z,90.11
2023-04-30T05:07:13.962Z,89.53
2023-04-30T05:09:47.270Z,89.06
2023-04-30T05:12:19.612Z,88.97
2023-04-30T05:14:51.868Z,87.29
2023-04-30T05:17:24.192Z,87.23
2023-04-30T05:19:56.693Z,86.92
2023-04-30T05:22:31.807Z,85.77
2023-04-30T05:25:04.683Z,85.43
2023-04-30T05:27:37.044Z,84.91
2023-04-30T05:30:10.250Z,84.60
2023-04-30T05:32:42.651Z,84.09
2023-04-30T05:35:14.992Z,83.78
2023-04-30T05:37:47.180Z,83.36
2023-04-30T05:40:19.562Z,81.60
2023-04-30T05:42:51.887Z,81.72
2023-04-30T05:45:24.514Z,81.38
2023-04-30T05:47:56.682Z,81.63
2023-04-30T05:50:28.897Z,79.97
2023-04-30T05:53:01.506Z,78.45
2023-04-30T05:55:33.769Z,78.07
2023-04-30T05:58:06.631Z,78.32
2023-04-30T06:00:39.716Z,77.73
2023-04-30T06:03:11.900Z,77.53
2023-04-30T06:05:45.493Z,77.84
2023-04-30T06:08:17.708Z,77.64
2023-04-30T06:10:51.162Z,77.18
2023-04-30T06:13:23.730Z,77.55
2023-04-30T06:15:55.873Z,76.13
2023-04-30T06:18:28.102Z,74.78
2023-04-30T06:21:00.433Z,75.30
2023-04-30T06:23:32.727Z,75.84
2023-04-30T06:26:05.082Z,73.96
2023-04-30T06:28:39.952Z,73.44
2023-04-30T06:31:12.240Z,73.95
2023-04-30T06:33:44.418Z,73.29
2023-04-30T06:36:16.744Z,73.57
2023-04-30T06:38:49.091Z,73.25
2023-04-30T06:41:21.497Z,72.08
2023-04-30T06:43:53.801Z,70.92
2023-04-30T06:46:26.383Z,70.73
2023-04-30T06:49:01.187Z,70.03
2023-04-30T06:51:33.704Z,70.04
2023-04-30T06:54:06.602Z,68.84
2023-04-30T06:56:38.757Z,67.11
2023-04-30T06:59:10.868Z,64.26
2023-04-30T07:01:43.079Z,64.60
2023-04-30T07:04:15.293Z,64.74
2023-04-30T07:06:47.529Z,62.89
2023-04-30T07:09:19.607Z,61.80
2023-04-30T07:11:52.123Z,61.75
2023-04-30T07:14:24.608Z,61.54
2023-04-30T07:16:56.801Z,61.64
2023-04-30T07:19:28.941Z,59.84
2023-04-30T07:22:01.309Z,57.51
2023-04-30T07:24:33.382Z,56.92
2023-04-30T07:27:07.501Z,54.72
2023-04-30T07:29:39.651Z,56.55
2023-04-30T07:32:11.915Z,54.84
2023-04-30T07:34:45.224Z,55.23
2023-04-30T07:37:17.741Z,55.13
2023-04-30T07:39:50.207Z,54.58
2023-04-30T07:42:22.409Z,52.89
2023-04-30T07:44:54.661Z,53.84
2023-04-30T07:47:27.350Z,53.84
2023-04-30T07:50:00.544Z,53.59
2023-04-30T07:52:32.731Z,50.14
2023-04-30T07:55:05.332Z,46.65
2023-04-30T07:57:37.418Z,42.75
2023-04-30T08:00:10.074Z,39.75
2023-04-30T08:02:44.283Z,37.21
2023-04-30T08:05:17.043Z,36.82
2023-04-30T08:07:49.315Z,36.50
2023-04-30T08:10:21.780Z,33.79
2023-04-30T08:12:54.088Z,32.27
2023-04-30T08:15:28.758Z,32.83
2023-04-30T08:18:05.632Z,32.22
2023-04-30T08:20:38.753Z,32.44
2023-04-30T08:23:13.351Z,32.04
2023-04-30T08:25:48.812Z,31.88
2023-04-30T08:28:21.356Z,31.80
2023-04-30T08:30:53.549Z,31.36
2023-04-30T08:33:25.801Z,32.29
2023-04-30T08:36:00.477Z,33.93
2023-04-30T08:38:32.793Z,31.92
2023-04-30T08:41:27.133Z,33.18
2023-04-30T08:44:02.550Z,33.97
2023-04-30T08:46:37.866Z,32.00
2023-04-30T08:49:11.064Z,31.59
2023-04-30T08:51:43.510Z,31.93
2023-04-30T08:54:18.616Z,32.26
2023-04-30T08:56:51.065Z,31.44
2023-04-30T08:59:23.613Z,30.36
2023-04-30T09:01:56.082Z,29.58
2023-04-30T09:04:29.426Z,28.64
2023-04-30T09:07:05.219Z,27.92
2023-04-30T09:09:39.370Z,25.92
2023-04-30T09:12:19.389Z,25.78
2023-04-30T09:15:05.217Z,27.16
2023-04-30T09:17:37.554Z,27.20
2023-04-30T09:20:14.354Z,25.29
2023-04-30T09:22:46.573Z,25.05
2023-04-30T09:25:19.337Z,26.88
2023-04-30T09:28:16.790Z,27.47
2023-04-30T09:30:48.975Z,26.29
2023-04-30T09:33:21.162Z,27.28
2023-04-30T09:35:53.513Z,28.16
2023-04-30T09:38:32.126Z,28.10
2023-04-30T09:41:04.450Z,30.05
2023-04-30T09:43:45.608Z,30.94
2023-04-30T09:46:20.723Z,29.47
2023-04-30T09:49:01.855Z,29.52
2023-04-30T09:51:34.240Z,27.44
2023-04-30T09:54:08.184Z,26.82
2023-04-30T09:56:40.472Z,27.18
2023-04-30T09:59:14.451Z,28.12
2023-04-30T10:01:46.982Z,29.08
2023-04-30T10:04:21.070Z,27.49
2023-04-30T10:06:55.598Z,26.78
2023-04-30T10:09:36.892Z,27.45
2023-04-30T10:12:16.203Z,27.06
2023-04-30T10:14:56.400Z,25.88
2023-04-30T10:17:31.427Z,24.77
2023-04-30T10:20:10.291Z,24.54
2023-04-30T10:22:43.957Z,25.38
2023-04-30T10:25:17.694Z,23.84
2023-04-30T10:27:50.368Z,24.07
2023-04-30T10:30:23.577Z,22.75
2023-04-30T10:33:22.282Z,22.63
2023-04-30T10:36:01.127Z,22.61
2023-04-30T10:38:34.586Z,22.72
2023-04-30T10:41:09.873Z,21.27
2023-04-30T10:43:42.185Z,20.77
2023-04-30T10:46:26.189Z,21.79
2023-04-30T10:49:01.115Z,20.12
2023-04-30T10:52:00.875Z,19.21
2023-04-30T10:54:35.942Z,19.71
2023-04-30T10:57:20.331Z,19.17
2023-04-30T10:59:55.960Z,20.48
2023-04-30T11:02:44.410Z,20.27
2023-04-30T11:05:18.652Z,21.50
2023-04-30T11:07:58.856Z,21.53
2023-04-30T11:10:36.906Z,22.47
2023-04-30T11:13:10.552Z,20.65
2023-04-30T11:15:48.570Z,19.30
2023-04-30T11:18:22.365Z,19.66
2023-04-30T11:20:55.320Z,20.12
2023-04-30T11:23:38.263Z,19.79
2023-04-30T11:26:12.740Z,19.63
2023-04-30T11:28:53.228Z,20.05
2023-04-30T11:31:35.148Z,19.63
2023-04-30T11:34:09.624Z,20.38
2023-04-30T11:36:49.126Z,21.58
2023-04-30T11:39:22.819Z,19.40
2023-04-30T11:41:59.280Z,20.19
2023-04-30T11:44:32.855Z,19.96
2023-04-30T11:47:14.987Z,18.99
2023-04-30T11:50:02.369Z,18.90
2023-04-30T11:52:36.195Z,19.44
2023-04-30T11:55:22.332Z,19.16
2023-04-30T12:01:30.487Z,18.31
2023-04-30T12:04:07.755Z,19.15
2023-04-30T12:07:37.625Z,19.90
2023-04-30T12:10:11.801Z,20.55
2023-04-30T12:12:54.699Z,21.47
2023-04-30T12:15:30.098Z,20.26
2023-04-30T12:21:42.611Z,18.72
2023-04-30T12:24:20.607Z,19.98
2023-04-30T12:27:05.484Z,20.51
2023-04-30T12:30:09.154Z,19.36
2023-04-30T12:44:23.130Z,19.57
2023-04-30T12:47:01.156Z,20.16
2023-04-30T12:49:41.090Z,19.05
2023-04-30T12:52:17.922Z,17.20
2023-04-30T12:55:51.384Z,18.91
2023-04-30T12:58:36.040Z,20.32
2023-04-30T13:01:21.662Z,19.32
2023-04-30T13:03:57.971Z,20.21
2023-04-30T13:06:30.534Z,19.87
2023-04-30T13:09:08.273Z,19.54
2023-04-30T13:11:41.220Z,19.70
2023-04-30T13:14:15.571Z,19.90
2023-04-30T13:16:52.238Z,21.38
2023-04-30T13:19:42.412Z,21.57
2023-04-30T13:22:15.294Z,21.68
2023-04-30T13:24:47.340Z,22.04
2023-04-30T13:27:26.165Z,23.28
2023-04-30T13:30:12.788Z,23.39
2023-04-30T13:33:00.150Z,23.66
2023-04-30T13:35:32.418Z,23.49
2023-04-30T13:39:07.858Z,25.41
2023-04-30T13:41:44.037Z,24.59
2023-04-30T13:44:17.339Z,24.71
2023-04-30T13:46:53.880Z,25.58
2023-04-30T13:49:26.383Z,24.25
2023-04-30T13:51:58.537Z,23.54
2023-04-30T13:54:30.994Z,23.45
2023-04-30T13:57:06.594Z,23.03
2023-04-30T13:59:41.772Z,22.19
2023-04-30T14:02:13.970Z,23.53
2023-04-30T14:04:54.953Z,25.40
2023-04-30T14:07:37.572Z,25.28
2023-04-30T14:10:13.079Z,26.52
2023-04-30T14:12:45.442Z,26.12
2023-04-30T14:15:17.938Z,26.62
2023-04-30T14:17:50.245Z,26.93
2023-04-30T14:20:22.430Z,26.58
2023-04-30T14:22:55.766Z,27.94
2023-04-30T14:25:27.911Z,28.00
2023-04-30T14:28:02.837Z,28.39
2023-04-30T14:33:14.978Z,28.33
2023-04-30T14:35:48.683Z,28.58
2023-04-30T14:38:21.047Z,29.80
2023-04-30T14:40:55.518Z,29.74
2023-04-30T14:43:43.223Z,31.21
2023-04-30T14:46:15.458Z,31.03
2023-04-30T14:48:47.728Z,30.58
2023-04-30T14:51:20.037Z,30.42
2023-04-30T14:53:53.414Z,30.90
2023-04-30T14:56:32.847Z,31.37
2023-04-30T14:59:14.154Z,31.32
2023-04-30T15:04:34.074Z,31.77
2023-04-30T15:07:40.310Z,31.26
2023-04-30T15:10:13.856Z,31.58
2023-04-30T15:12:49.101Z,31.89
2023-04-30T15:15:29.393Z,32.70
2023-04-30T15:18:04.113Z,32.28
2023-04-30T15:20:39.352Z,32.56
2023-04-30T15:23:13.322Z,32.18
2023-04-30T15:25:49.026Z,31.36
2023-04-30T15:28:22.181Z,32.04
2023-04-30T15:30:54.854Z,31.96
2023-04-30T15:33:29.108Z,31.97
2023-04-30T15:36:01.544Z,32.21
2023-04-30T15:38:33.967Z,32.51
2023-04-30T15:41:08.824Z,33.49
2023-04-30T15:43:41.195Z,33.83
2023-04-30T15:46:13.999Z,34.51
2023-04-30T15:48:46.122Z,34.02
2023-04-30T15:51:18.218Z,34.49
2023-04-30T15:53:50.335Z,33.98
2023-04-30T15:56:26.304Z,34.36
2023-04-30T17:11:19.509Z,35.92
2023-04-30T17:13:55.150Z,36.59
2023-04-30T17:16:28.571Z,36.60
2023-04-30T17:19:00.898Z,36.64
2023-04-30T17:21:41.261Z,36.93
2023-04-30T17:24:14.320Z,37.64
2023-04-30T17:26:46.734Z,37.58
2023-04-30T17:29:21.115Z,37.48
2023-04-30T17:31:53.620Z,37.90
2023-04-30T17:35:10.142Z,37.01
2023-04-30T17:37:42.620Z,37.59
2023-04-30T17:40:17.118Z,38.06
2023-04-30T17:42:51.679Z,37.47
2023-04-30T17:45:27.429Z,37.87
2023-04-30T17:48:02.744Z,38.12
2023-04-30T17:50:37.865Z,39.36
2023-04-30T17:53:10.094Z,38.21
2023-04-30T17:55:42.395Z,38.63
2023-04-30T17:58:14.740Z,38.45
2023-04-30T18:00:47.070Z,40.02
2023-04-30T18:03:33.987Z,39.18
2023-04-30T18:06:06.176Z,39.16
2023-04-30T18:08:38.383Z,38.90
2023-04-30T18:11:12.632Z,38.87
2023-04-30T18:13:47.720Z,39.56
2023-04-30T18:16:32.371Z,40.81
2023-04-30T18:19:19.454Z,41.87
2023-04-30T18:25:37.377Z,42.27
2023-04-30T18:28:17.997Z,42.82
2023-04-30T18:30:53.156Z,42.61
2023-04-30T18:33:41.463Z,43.66
2023-04-30T18:36:13.733Z,43.65
2023-04-30T18:38:48.053Z,43.63
2023-04-30T18:41:32.589Z,42.73
2023-04-30T18:44:05.414Z,42.55
2023-04-30T18:46:40.196Z,43.65
2023-04-30T18:49:12.272Z,44.33
2023-04-30T18:56:38.488Z,45.48
2023-04-30T18:59:10.825Z,45.70
2023-04-30T19:01:43.634Z,46.31
2023-04-30T19:04:19.073Z,48.02
2023-04-30T19:06:53.010Z,48.85
2023-04-30T19:09:25.166Z,48.82
2023-04-30T19:11:57.557Z,48.85
2023-04-30T19:14:29.740Z,49.39
2023-04-30T19:17:12.785Z,49.13
2023-04-30T19:19:45.606Z,51.34
2023-04-30T19:22:19.452Z,50.60
2023-04-30T19:24:52.861Z,50.98
2023-04-30T19:27:25.377Z,50.32
2023-04-30T19:29:58.382Z,52.01
2023-04-30T19:32:38.683Z,50.44
2023-04-30T19:35:11.776Z,50.18
2023-04-30T19:37:44.264Z,52.12
2023-04-30T19:40:20.228Z,52.82
2023-04-30T19:43:10.599Z,52.39
2023-04-30T19:45:54.586Z,52.33
2023-04-30T19:48:27.072Z,52.36
2023-04-30T19:50:59.373Z,52.49
2023-04-30T19:53:31.824Z,53.12
2023-04-30T19:56:07.677Z,53.11
2023-04-30T19:58:42.799Z,52.89
2023-04-30T20:01:19.826Z,51.82
2023-04-30T20:03:52.397Z,51.47
2023-04-30T20:06:33.788Z,51.32
2023-04-30T20:09:08.321Z,51.23
2023-04-30T20:12:13.881Z,51.48
2023-04-30T20:14:46.135Z,51.99
2023-04-30T20:17:30.293Z,52.11
2023-04-30T20:20:26.730Z,53.23
2023-04-30T20:22:58.835Z,53.18
2023-04-30T20:26:10.569Z,54.39
2023-04-30T20:28:44.087Z,54.09
2023-04-30T20:31:16.526Z,54.34
2023-04-30T20:33:59.714Z,53.75
2023-04-30T20:36:34.367Z,54.54
2023-04-30T20:39:08.742Z,54.60
2023-04-30T20:41:40.971Z,55.16
2023-04-30T20:44:14.085Z,55.26
2023-04-30T20:46:49.504Z,55.50
2023-04-30T20:49:25.095Z,56.28
2023-04-30T20:51:58.598Z,56.05
2023-04-30T20:57:28.625Z,57.12
2023-04-30T21:00:00.968Z,58.66
2023-04-30T21:02:34.426Z,58.40
2023-04-30T21:05:24.538Z,58.69
2023-04-30T21:08:01.594Z,59.71
2023-04-30T21:10:38.572Z,59.16
2023-04-30T21:13:17.730Z,59.60
2023-04-30T21:16:21.881Z,60.89
2023-04-30T21:18:55.476Z,60.47
2023-04-30T21:21:40.294Z,61.03
2023-04-30T21:24:13.247Z,61.22
2023-04-30T21:26:45.474Z,61.20
2023-04-30T21:29:17.780Z,61.35
2023-04-30T21:32:10.568Z,61.48
2023-04-30T21:34:44.431Z,62.24
2023-04-30T21:37:17.531Z,62.70
2023-04-30T21:39:49.972Z,63.75
2023-04-30T21:42:22.066Z,63.44
2023-04-30T21:44:58.633Z,64.00
2023-04-30T21:47:30.988Z,63.55
2023-04-30T21:50:03.381Z,63.55
2023-04-30T21:52:35.580Z,63.94
2023-04-30T21:55:08.656Z,64.44
2023-04-30T21:57:40.753Z,64.23
2023-04-30T22:00:14.711Z,65.09
2023-04-30T22:05:59.890Z,65.11
2023-04-30T22:08:32.211Z,65.62
2023-04-30T22:11:06.708Z,65.25
2023-04-30T22:13:42.118Z,65.07
2023-04-30T22:16:14.261Z,65.26
2023-04-30T22:18:46.459Z,65.86
2023-04-30T22:21:18.508Z,66.30
2023-04-30T22:23:50.553Z,66.24
2023-04-30T22:26:24.228Z,66.20
2023-04-30T22:29:38.644Z,65.76
2023-04-30T22:32:11.734Z,65.88
2023-04-30T22:34:43.867Z,65.41
2023-04-30T22:38:08.927Z,65.53
2023-04-30T22:40:42.068Z,65.37
2023-04-30T22:43:20.868Z,65.30
2023-04-30T22:45:53.680Z,64.99
2023-04-30T22:48:34.400Z,64.72
2023-04-30T22:58:59.333Z,65.85
2023-04-30T23:01:38.916Z,65.81
2023-04-30T23:04:54.539Z,65.91
2023-04-30T23:07:30.925Z,66.27
2023-04-30T23:10:13.541Z,67.88
2023-04-30T23:16:07.500Z,66.36
2023-04-30T23:19:22.267Z,67.64
